createdAt,value
2022-08-17T00:01:37.864Z,10.90
2022-08-17T00:04:19.135Z,12.55
2022-08-17T00:06:46.052Z,13.55
2022-08-17T00:09:18.322Z,12.60
2022-08-17T00:12:40.695Z,13.02
2022-08-17T00:14:35.002Z,11.77
2022-08-17T00:17:03.670Z,12.10
2022-08-17T00:19:30.327Z,10.75
2022-08-17T00:22:35.053Z,10.95
2022-08-17T00:24:46.961Z,11.30
2022-08-17T00:27:13.504Z,11.20
2022-08-17T00:29:40.119Z,11.52
2022-08-17T00:33:14.778Z,10.75
2022-08-17T00:34:53.399Z,11.68
2022-08-17T00:37:19.993Z,11.05
2022-08-17T00:39:46.554Z,9.82
2022-08-17T00:42:19.013Z,11.07
2022-08-17T00:44:46.215Z,10.35
2022-08-17T00:47:13.925Z,10.80
2022-08-17T00:49:40.547Z,11.07
2022-08-17T00:52:16.549Z,10.38
2022-08-17T00:54:46.952Z,9.82
2022-08-17T00:57:20.040Z,9.77
2022-08-17T00:59:55.926Z,9.98
2022-08-17T01:02:40.391Z,10.35
2022-08-17T01:08:57.479Z,10.73
2022-08-17T01:11:24.588Z,10.20
2022-08-17T01:13:51.380Z,9.98
2022-08-17T01:16:27.896Z,9.98
2022-08-17T01:19:00.832Z,10.80
2022-08-17T01:21:46.884Z,10.18
2022-08-17T01:24:13.575Z,9.63
2022-08-17T01:26:42.236Z,11.20
2022-08-17T01:29:09.859Z,10.05
2022-08-17T01:31:41.477Z,9.75
2022-08-17T01:34:10.202Z,9.50
2022-08-17T01:36:39.489Z,9.55
2022-08-17T01:39:11.698Z,10.40
2022-08-17T01:41:40.978Z,9.77
2022-08-17T01:44:09.753Z,10.20
2022-08-17T01:46:36.978Z,9.77
2022-08-17T01:49:08.834Z,10.32
2022-08-17T01:51:35.548Z,9.52
2022-08-17T01:54:05.397Z,9.98
2022-08-17T01:56:33.695Z,9.85
2022-08-17T01:59:00.209Z,9.77
2022-08-17T02:01:29.252Z,9.57
2022-08-17T02:04:00.955Z,9.80
2022-08-17T02:06:52.522Z,10.30
2022-08-17T02:09:23.974Z,9.65
2022-08-17T02:11:54.361Z,10.27
2022-08-17T02:14:21.553Z,10.13
2022-08-17T02:16:48.062Z,10.35
2022-08-17T02:19:16.761Z,10.38
2022-08-17T02:21:46.133Z,10.00
2022-08-17T02:25:00.858Z,10.00
2022-08-17T02:27:07.735Z,9.68
2022-08-17T02:29:34.417Z,10.15
2022-08-17T02:32:01.824Z,10.45
2022-08-17T02:34:28.874Z,9.77
2022-08-17T02:36:55.565Z,10.68
2022-08-17T02:39:22.075Z,10.70
2022-08-17T02:41:48.931Z,11.40
2022-08-17T02:44:39.443Z,10.07
2022-08-17T02:47:03.525Z,10.00
2022-08-17T02:49:30.181Z,10.77
2022-08-17T02:51:58.522Z,11.05
2022-08-17T02:54:40.290Z,9.75
2022-08-17T02:57:09.784Z,11.38
2022-08-17T02:59:36.627Z,10.85
2022-08-17T03:02:04.304Z,10.57
2022-08-17T03:04:31.202Z,10.75
2022-08-17T03:07:02.140Z,10.70
2022-08-17T03:09:28.631Z,10.35
2022-08-17T03:11:56.081Z,10.93
2022-08-17T03:14:26.257Z,10.65
2022-08-17T03:16:52.987Z,10.63
2022-08-17T03:19:19.546Z,11.23
2022-08-17T03:21:46.032Z,11.27
2022-08-17T03:24:21.502Z,11.07
2022-08-17T03:26:55.071Z,11.18
2022-08-17T03:29:21.561Z,11.10
2022-08-17T03:31:49.687Z,11.00
2022-08-17T03:34:17.351Z,11.30
2022-08-17T03:36:44.002Z,11.55
2022-08-17T03:39:10.854Z,11.90
2022-08-17T03:41:38.819Z,12.27
2022-08-17T03:44:05.343Z,12.10
2022-08-17T03:46:50.003Z,11.77
2022-08-17T03:49:34.992Z,11.57
2022-08-17T03:52:21.307Z,11.75
2022-08-17T03:55:06.356Z,12.50
2022-08-17T03:57:32.912Z,11.85
2022-08-17T03:59:59.803Z,11.02
2022-08-17T04:02:32.162Z,11.63
2022-08-17T04:04:59.609Z,12.32
2022-08-17T04:07:28.256Z,12.70
2022-08-17T04:09:55.133Z,12.05
2022-08-17T04:12:23.623Z,12.32
2022-08-17T04:14:53.445Z,12.32
2022-08-17T04:17:27.282Z,12.20
2022-08-17T04:19:55.037Z,11.88
2022-08-17T04:22:32.817Z,11.90
2022-08-17T04:25:17.897Z,13.25
2022-08-17T04:27:44.565Z,12.38
2022-08-17T04:30:12.183Z,13.13
2022-08-17T04:33:11.805Z,13.32
2022-08-17T04:35:41.854Z,13.93
2022-08-17T04:38:11.987Z,15.43
2022-08-17T04:40:57.333Z,11.90
2022-08-17T04:43:26.603Z,11.93
2022-08-17T04:45:57.259Z,12.10
2022-08-17T04:48:36.863Z,13.93
2022-08-17T04:51:10.528Z,14.77
2022-08-17T04:53:38.826Z,14.98
2022-08-17T04:56:05.917Z,15.07
2022-08-17T04:58:32.907Z,15.95
2022-08-17T05:00:59.851Z,15.45
2022-08-17T05:03:26.433Z,20.90
2022-08-17T05:05:53.668Z,42.17
2022-08-17T05:08:20.968Z,33.65
2022-08-17T05:10:48.497Z,29.20
2022-08-17T05:13:18.872Z,25.52
2022-08-17T05:15:48.128Z,20.75
2022-08-17T05:18:16.741Z,17.90
2022-08-17T05:20:43.729Z,19.30
2022-08-17T05:23:13.099Z,20.58
2022-08-17T05:25:43.347Z,18.33
2022-08-17T05:28:15.159Z,16.45
2022-08-17T05:30:43.667Z,15.70
2022-08-17T05:33:14.151Z,15.07
2022-08-17T05:35:43.994Z,15.27
2022-08-17T05:38:10.895Z,15.25
2022-08-17T05:40:38.288Z,15.63
2022-08-17T05:43:17.010Z,14.93
2022-08-17T05:45:55.177Z,14.27
2022-08-17T05:48:35.677Z,13.35
2022-08-17T05:51:44.074Z,11.85
2022-08-17T05:54:26.384Z,14.05
2022-08-17T05:57:00.092Z,14.38
2022-08-17T05:59:48.689Z,14.05
2022-08-17T06:02:50.790Z,13.25
2022-08-17T06:05:36.966Z,12.80
2022-08-17T06:08:09.936Z,12.35
2022-08-17T06:10:46.935Z,12.68
2022-08-17T06:13:25.324Z,10.77
2022-08-17T06:16:33.152Z,9.73
2022-08-17T06:19:16.987Z,10.52
2022-08-17T06:21:47.679Z,11.68
2022-08-17T06:24:37.647Z,10.23
2022-08-17T06:27:31.173Z,11.40
2022-08-17T06:30:09.285Z,11.38
2022-08-17T06:32:43.580Z,9.82
2022-08-17T06:35:27.780Z,10.75
2022-08-17T06:38:10.394Z,9.35
2022-08-17T06:41:13.159Z,8.73
2022-08-17T06:44:06.500Z,8.90
2022-08-17T06:46:41.381Z,9.00
2022-08-17T06:49:21.866Z,9.45
2022-08-17T06:52:00.185Z,8.90
2022-08-17T06:54:56.444Z,8.05
2022-08-17T06:57:29.445Z,9.50
2022-08-17T06:59:59.347Z,8.60
2022-08-17T07:02:51.544Z,8.05
2022-08-17T07:05:23.676Z,7.30
2022-08-17T07:08:04.631Z,7.78
2022-08-17T07:10:54.812Z,6.85
2022-08-17T07:13:21.229Z,6.82
2022-08-17T07:15:56.954Z,5.63
2022-08-17T07:18:26.214Z,4.90
2022-08-17T07:20:59.773Z,4.63
2022-08-17T07:23:37.791Z,6.07
2022-08-17T07:26:09.097Z,6.03
2022-08-17T07:31:04.838Z,5.82
2022-08-17T07:33:34.150Z,5.50
2022-08-17T07:36:01.547Z,7.25
2022-08-17T07:38:35.531Z,5.60
2022-08-17T07:41:06.525Z,5.65
2022-08-17T07:43:41.946Z,6.03
2022-08-17T07:46:30.251Z,5.10
2022-08-17T07:49:17.980Z,4.57
2022-08-17T07:51:44.369Z,4.80
2022-08-17T07:54:21.361Z,4.88
2022-08-17T07:57:20.175Z,5.50
2022-08-17T08:00:12.734Z,4.07
2022-08-17T08:02:45.984Z,4.70
2022-08-17T08:05:44.292Z,4.70
2022-08-17T08:08:33.231Z,4.60
2022-08-17T08:11:02.852Z,3.75
2022-08-17T08:13:32.199Z,3.17
2022-08-17T08:16:24.663Z,4.00
2022-08-17T08:18:58.017Z,3.80
2022-08-17T08:21:49.079Z,3.60
2022-08-17T08:24:24.687Z,3.67
2022-08-17T08:27:15.941Z,3.75
2022-08-17T08:29:47.315Z,4.00
2022-08-17T08:32:24.456Z,3.63
2022-08-17T08:35:02.608Z,4.13
2022-08-17T08:37:42.884Z,3.83
2022-08-17T08:40:27.889Z,3.85
2022-08-17T08:43:09.355Z,4.30
2022-08-17T08:45:35.879Z,4.47
2022-08-17T08:48:56.395Z,4.13
2022-08-17T08:51:27.689Z,4.20
2022-08-17T08:54:15.783Z,3.92
2022-08-17T09:00:02.987Z,4.63
2022-08-17T09:02:44.549Z,3.90
2022-08-17T09:05:28.088Z,3.92
2022-08-17T09:07:58.618Z,4.13
2022-08-17T09:10:56.010Z,3.50
2022-08-17T09:13:40.735Z,3.05
2022-08-17T09:16:18.189Z,3.15
2022-08-17T09:19:03.606Z,3.50
2022-08-17T09:21:52.661Z,2.92
2022-08-17T09:24:43.385Z,2.60
2022-08-17T09:27:18.615Z,3.15
2022-08-17T09:29:51.551Z,2.40
2022-08-17T09:32:42.617Z,2.47
2022-08-17T09:38:00.426Z,2.10
2022-08-17T09:40:45.392Z,2.33
2022-08-17T09:43:36.387Z,2.67
2022-08-17T09:46:11.404Z,2.88
2022-08-17T09:48:44.693Z,2.35
2022-08-17T09:51:22.984Z,2.67
2022-08-17T09:53:50.632Z,2.60
2022-08-17T09:56:42.307Z,2.70
2022-08-17T09:59:38.212Z,2.75
2022-08-17T10:02:25.158Z,2.40
2022-08-17T10:04:57.877Z,2.38
2022-08-17T10:07:57.605Z,4.78
2022-08-17T10:10:32.488Z,2.90
2022-08-17T10:13:18.408Z,2.60
2022-08-17T10:15:56.212Z,2.17
2022-08-17T10:18:22.648Z,2.60
2022-08-17T10:21:19.897Z,2.25
2022-08-17T10:24:11.329Z,2.40
2022-08-17T10:26:55.774Z,2.67
2022-08-17T10:29:28.926Z,2.28
2022-08-17T10:32:04.126Z,2.47
2022-08-17T10:35:04.299Z,2.33
2022-08-17T10:37:57.310Z,2.50
2022-08-17T10:40:36.830Z,2.10
2022-08-17T10:43:32.945Z,2.10
2022-08-17T10:46:30.198Z,2.42
2022-08-17T10:49:16.659Z,2.55
2022-08-17T10:51:45.905Z,2.70
2022-08-17T10:54:24.581Z,2.42
2022-08-17T10:56:53.947Z,2.40
2022-08-17T10:59:35.514Z,2.47
2022-08-17T11:02:04.832Z,2.40
2022-08-17T11:05:00.453Z,2.80
2022-08-17T11:07:48.300Z,2.47
2022-08-17T11:10:52.262Z,2.55
2022-08-17T11:13:25.894Z,2.35
2022-08-17T11:16:08.367Z,2.80
2022-08-17T11:19:05.125Z,2.30
2022-08-17T11:21:59.026Z,2.35
2022-08-17T11:24:40.455Z,2.25
2022-08-17T11:27:20.003Z,2.65
2022-08-17T11:30:02.767Z,2.40
2022-08-17T11:32:47.627Z,3.15
2022-08-17T11:35:21.174Z,2.40
2022-08-17T11:37:52.251Z,2.90
2022-08-17T11:43:00.359Z,2.95
2022-08-17T11:45:33.039Z,2.60
2022-08-17T11:48:34.658Z,2.60
2022-08-17T11:51:33.698Z,2.78
2022-08-17T11:54:31.040Z,2.35
2022-08-17T11:56:51.782Z,2.45
2022-08-17T11:59:32.667Z,2.42
2022-08-17T12:04:33.360Z,2.92
2022-08-17T12:07:21.179Z,2.58
2022-08-17T12:09:50.878Z,2.58
2022-08-17T12:12:22.464Z,3.38
2022-08-17T12:15:11.491Z,2.50
2022-08-17T12:17:42.659Z,2.10
2022-08-17T12:20:23.348Z,3.13
2022-08-17T12:23:01.033Z,2.80
2022-08-17T12:25:34.286Z,3.28
2022-08-17T12:28:06.291Z,3.00
2022-08-17T12:30:35.246Z,2.85
2022-08-17T12:33:01.795Z,3.00
2022-08-17T12:35:35.198Z,2.80
2022-08-17T12:38:03.410Z,2.33
2022-08-17T12:40:32.170Z,2.72
2022-08-17T12:43:01.796Z,3.08
2022-08-17T12:45:31.238Z,2.85
2022-08-17T12:48:04.077Z,2.90
2022-08-17T12:50:32.185Z,2.60
2022-08-17T12:53:02.485Z,2.58
2022-08-17T12:55:35.648Z,2.40
2022-08-17T12:58:02.474Z,3.50
2022-08-17T13:00:31.695Z,4.35
2022-08-17T13:03:19.109Z,2.60
2022-08-17T13:06:10.422Z,2.33
2022-08-17T13:08:43.053Z,2.30
2022-08-17T13:11:20.126Z,2.78
2022-08-17T13:13:56.103Z,3.40
2022-08-17T13:16:30.139Z,3.10
2022-08-17T13:19:20.213Z,3.58
2022-08-17T13:22:11.613Z,2.70
2022-08-17T13:24:38.957Z,2.60
2022-08-17T13:27:09.962Z,2.60
2022-08-17T13:32:13.013Z,2.70
2022-08-17T13:35:13.031Z,2.60
2022-08-17T13:37:41.395Z,3.05
2022-08-17T13:40:09.214Z,2.55
2022-08-17T13:42:53.081Z,2.45
2022-08-17T13:45:36.754Z,2.60
2022-08-17T13:48:30.914Z,2.92
2022-08-17T13:50:57.322Z,2.40
2022-08-17T13:53:33.043Z,2.80
2022-08-17T13:56:07.321Z,2.97
2022-08-17T13:58:57.654Z,3.20
2022-08-17T14:01:32.541Z,3.22
2022-08-17T14:04:01.963Z,3.10
2022-08-17T14:06:51.828Z,2.92
2022-08-17T14:09:26.832Z,2.53
2022-08-17T14:11:54.821Z,3.08
2022-08-17T14:14:23.307Z,3.42
2022-08-17T14:16:51.652Z,3.10
2022-08-17T14:19:18.902Z,3.25
2022-08-17T14:21:46.530Z,2.92
2022-08-17T14:24:22.880Z,3.03
2022-08-17T14:26:52.010Z,2.83
2022-08-17T14:29:20.138Z,3.08
2022-08-17T14:31:53.260Z,2.83
2022-08-17T14:34:21.973Z,3.58
2022-08-17T14:36:48.846Z,3.80
2022-08-17T14:39:17.308Z,4.93
2022-08-17T14:41:43.874Z,7.78
2022-08-17T14:44:12.579Z,6.35
2022-08-17T14:46:40.830Z,3.60
2022-08-17T14:49:09.230Z,2.97
2022-08-17T14:51:43.741Z,2.92
2022-08-17T14:54:11.565Z,4.55
2022-08-17T14:57:23.437Z,5.18
2022-08-17T14:59:44.857Z,2.65
2022-08-17T15:02:11.767Z,2.55
2022-08-17T15:04:41.979Z,2.78
2022-08-17T15:07:11.518Z,2.95
2022-08-17T15:09:37.981Z,3.33
2022-08-17T15:12:06.542Z,2.65
2022-08-17T15:15:18.080Z,2.97
2022-08-17T15:17:46.137Z,3.00
2022-08-17T15:20:16.040Z,3.10
2022-08-17T15:22:44.316Z,3.65
2022-08-17T15:25:12.164Z,3.35
2022-08-17T15:27:39.004Z,3.50
2022-08-17T15:30:07.170Z,3.28
2022-08-17T15:32:38.005Z,4.63
2022-08-17T15:35:06.906Z,3.95
2022-08-17T15:37:33.450Z,2.92
2022-08-17T15:40:03.135Z,3.10
2022-08-17T15:42:29.873Z,3.17
2022-08-17T15:44:56.438Z,2.85
2022-08-17T15:47:23.340Z,3.13
2022-08-17T15:49:50.795Z,3.22
2022-08-17T15:52:24.150Z,2.95
2022-08-17T15:54:56.282Z,2.65
2022-08-17T15:57:25.869Z,3.08
2022-08-17T15:59:55.321Z,4.20
2022-08-17T16:03:16.082Z,3.15
2022-08-17T16:05:21.726Z,3.97
2022-08-17T16:07:51.415Z,3.65
2022-08-17T16:10:19.211Z,3.42
2022-08-17T16:12:47.624Z,3.28
2022-08-17T16:15:14.848Z,5.60
2022-08-17T16:17:41.519Z,3.58
2022-08-17T16:20:20.344Z,3.00
2022-08-17T16:22:49.146Z,4.47
2022-08-17T16:25:20.796Z,3.50
2022-08-17T16:27:50.456Z,3.42
2022-08-17T16:30:17.837Z,3.00
2022-08-17T16:32:45.832Z,2.90
2022-08-17T16:35:16.145Z,3.50
2022-08-17T16:37:45.395Z,3.17
2022-08-17T16:40:13.548Z,3.05
2022-08-17T16:42:40.657Z,3.20
2022-08-17T16:45:13.207Z,5.40
2022-08-17T16:47:41.810Z,3.63
2022-08-17T16:50:11.688Z,4.40
2022-08-17T16:52:38.990Z,4.03
2022-08-17T16:55:07.992Z,3.85
2022-08-17T16:57:37.301Z,3.45
2022-08-17T17:00:16.837Z,3.45
2022-08-17T17:02:49.598Z,3.75
2022-08-17T17:05:19.298Z,3.45
2022-08-17T17:08:09.028Z,3.35
2022-08-17T17:10:38.776Z,3.67
2022-08-17T17:13:13.109Z,3.90
2022-08-17T17:16:17.585Z,3.90
2022-08-17T17:19:10.089Z,3.90
2022-08-17T17:22:00.932Z,3.85
2022-08-17T17:24:52.443Z,3.40
2022-08-17T17:27:21.607Z,3.92
2022-08-17T17:30:01.732Z,4.57
2022-08-17T17:32:38.071Z,4.22
2022-08-17T17:35:17.106Z,4.85
2022-08-17T17:37:46.449Z,4.85
2022-08-17T17:40:21.403Z,4.28
2022-08-17T17:42:51.634Z,4.10
2022-08-17T17:45:26.053Z,4.57
2022-08-17T17:47:53.247Z,4.63
2022-08-17T17:50:27.858Z,4.18
2022-08-17T17:53:35.026Z,4.93
2022-08-17T17:56:43.812Z,4.72
2022-08-17T17:59:41.839Z,4.10
2022-08-17T18:02:51.858Z,4.60
2022-08-17T18:05:37.035Z,5.20
2022-08-17T18:08:34.068Z,5.18
2022-08-17T18:11:25.988Z,4.82
2022-08-17T18:14:39.589Z,4.60
2022-08-17T18:17:06.374Z,4.70
2022-08-17T18:19:33.230Z,5.32
2022-08-17T18:22:14.187Z,5.10
2022-08-17T18:24:44.149Z,5.18
2022-08-17T18:27:50.294Z,5.60
2022-08-17T18:30:16.846Z,5.50
2022-08-17T18:32:46.466Z,7.03
2022-08-17T18:35:14.246Z,6.53
2022-08-17T18:37:55.888Z,6.78
2022-08-17T18:40:35.049Z,7.20
2022-08-17T18:43:12.593Z,6.88
2022-08-17T18:45:47.101Z,6.57
2022-08-17T18:48:22.657Z,7.00
2022-08-17T18:50:53.374Z,7.20
2022-08-17T18:53:37.528Z,7.28
2022-08-17T18:56:30.479Z,6.38
2022-08-17T18:59:06.134Z,6.57
2022-08-17T19:01:52.739Z,6.70
2022-08-17T19:04:37.903Z,6.63
2022-08-17T19:07:12.570Z,6.32
2022-08-17T19:09:45.500Z,5.82
2022-08-17T19:12:27.228Z,6.60
2022-08-17T19:14:56.273Z,6.07
2022-08-17T19:17:31.966Z,5.75
2022-08-17T19:20:12.503Z,6.40
2022-08-17T19:22:46.879Z,6.30
2022-08-17T19:25:18.774Z,5.72
2022-08-17T19:27:57.784Z,6.53
2022-08-17T19:30:25.338Z,6.82
2022-08-17T19:32:53.011Z,7.05
2022-08-17T19:35:24.631Z,6.82
2022-08-17T19:38:12.997Z,7.10
2022-08-17T19:40:52.627Z,6.63
2022-08-17T19:43:54.688Z,7.15
2022-08-17T19:46:35.578Z,5.80
2022-08-17T19:49:34.481Z,6.90
2022-08-17T19:52:22.152Z,5.90
2022-08-17T19:55:08.924Z,6.18
2022-08-17T19:57:59.484Z,6.43
2022-08-17T20:00:26.093Z,7.13
2022-08-17T20:03:16.697Z,7.00
2022-08-17T20:06:13.712Z,7.25
2022-08-17T20:09:03.553Z,7.03
2022-08-17T20:11:49.195Z,6.95
2022-08-17T20:14:21.849Z,6.55
2022-08-17T20:16:48.445Z,6.90
2022-08-17T20:19:29.163Z,6.68
2022-08-17T20:22:17.608Z,6.57
2022-08-17T20:24:54.165Z,6.38
2022-08-17T20:27:45.352Z,5.97
2022-08-17T20:30:33.198Z,6.15
2022-08-17T20:33:02.230Z,6.35
2022-08-17T20:35:38.570Z,6.32
2022-08-17T20:38:08.498Z,5.75
2022-08-17T20:40:57.390Z,5.35
2022-08-17T20:43:29.792Z,5.70
2022-08-17T20:46:10.045Z,5.53
2022-08-17T20:48:44.512Z,5.90
2022-08-17T20:51:21.489Z,6.25
2022-08-17T20:53:48.036Z,6.20
2022-08-17T20:56:43.097Z,6.00
2022-08-17T20:59:30.275Z,5.88
2022-08-17T21:02:08.057Z,5.93
2022-08-17T21:04:51.293Z,6.38
2022-08-17T21:07:42.674Z,6.18
2022-08-17T21:10:33.988Z,6.60
2022-08-17T21:13:21.982Z,5.80
2022-08-17T21:16:15.067Z,6.38
2022-08-17T21:18:49.319Z,5.63
2022-08-17T21:21:25.923Z,5.97
2022-08-17T21:24:01.613Z,5.50
2022-08-17T21:26:50.418Z,5.95
2022-08-17T21:29:31.753Z,6.30
2022-08-17T21:31:59.179Z,6.78
2022-08-17T21:34:30.968Z,5.72
2022-08-17T21:37:19.865Z,5.93
2022-08-17T21:39:54.590Z,6.00
2022-08-17T21:42:31.602Z,6.10
2022-08-17T21:45:10.882Z,5.97
2022-08-17T21:47:45.213Z,6.10
2022-08-17T21:50:20.241Z,6.03
2022-08-17T21:52:48.436Z,6.05
2022-08-17T21:55:29.941Z,6.55
2022-08-17T21:58:13.518Z,5.82
2022-08-17T22:00:44.334Z,6.43
2022-08-17T22:03:23.717Z,7.22
2022-08-17T22:05:51.546Z,6.13
2022-08-17T22:08:20.629Z,5.90
2022-08-17T22:10:50.988Z,6.53
2022-08-17T22:13:17.785Z,6.72
2022-08-17T22:16:15.640Z,6.00
2022-08-17T22:18:54.319Z,6.03
2022-08-17T22:21:22.576Z,7.03
2022-08-17T22:24:04.305Z,6.82
2022-08-17T22:27:01.622Z,6.88
2022-08-17T22:30:00.549Z,6.18
2022-08-17T22:32:37.894Z,6.38
2022-08-17T22:35:28.654Z,6.20
2022-08-17T22:38:19.949Z,7.50
2022-08-17T22:40:49.783Z,6.90
2022-08-17T22:43:18.172Z,6.57
2022-08-17T22:45:53.611Z,6.68
2022-08-17T22:48:23.393Z,6.78
2022-08-17T22:51:14.168Z,6.80
2022-08-17T22:54:11.942Z,6.63
2022-08-17T22:57:05.435Z,7.07
2022-08-17T22:59:59.575Z,7.30
2022-08-17T23:02:31.541Z,7.00
2022-08-17T23:05:13.226Z,6.72
2022-08-17T23:07:45.758Z,6.97
2022-08-17T23:10:13.484Z,6.07
2022-08-17T23:12:40.423Z,7.30
2022-08-17T23:15:17.060Z,7.57
2022-08-17T23:17:45.040Z,7.28
2022-08-17T23:20:13.866Z,7.15
2022-08-17T23:22:51.370Z,6.78
2022-08-17T23:25:33.579Z,6.72
2022-08-17T23:28:01.864Z,7.13
2022-08-17T23:30:33.592Z,7.15
2022-08-17T23:33:15.665Z,7.05
2022-08-17T23:35:43.918Z,7.18
2022-08-17T23:38:11.892Z,8.00
2022-08-17T23:40:40.137Z,8.25
2022-08-17T23:43:23.709Z,6.82
2022-08-17T23:45:52.193Z,7.18
2022-08-17T23:48:35.678Z,7.20
2022-08-17T23:51:12.173Z,6.80
2022-08-17T23:53:44.004Z,8.05
2022-08-17T23:56:11.413Z,7.35
2022-08-17T23:58:40.128Z,7.20
